sensor_id;sensor_type;location;lat;lon;timestamp;P1;durP1;ratioP1;P2;durP2;ratioP2
15307;SDS011;7755;52.208;6.964;2024-01-27T00:00:17;14.83;;;6.47;;
15307;SDS011;7755;52.208;6.964;2024-01-27T00:04:25;16.50;;;6.53;;
15307;SDS011;7755;52.208;6.964;2024-01-27T00:08:30;13.27;;;6.17;;
15307;SDS011;7755;52.208;6.964;2024-01-27T00:12:36;11.87;;;6.23;;
15307;SDS011;7755;52.208;6.964;2024-01-27T00:16:40;12.43;;;6.33;;
15307;SDS011;7755;52.208;6.964;2024-01-27T00:20:48;15.67;;;6.47;;
15307;SDS011;7755;52.208;6.964;2024-01-27T00:24:53;12.53;;;6.47;;
15307;SDS011;7755;52.208;6.964;2024-01-27T00:28:58;7.60;;;5.80;;
15307;SDS011;7755;52.208;6.964;2024-01-27T00:33:06;19.83;;;7.70;;
15307;SDS011;7755;52.208;6.964;2024-01-27T00:37:13;15.17;;;6.57;;
15307;SDS011;7755;52.208;6.964;2024-01-27T00:41:20;12.50;;;5.80;;
15307;SDS011;7755;52.208;6.964;2024-01-27T00:45:25;13.70;;;6.50;;
15307;SDS011;7755;52.208;6.964;2024-01-27T00:49:32;10.53;;;5.90;;
15307;SDS011;7755;52.208;6.964;2024-01-27T00:53:40;18.13;;;6.90;;
15307;SDS011;7755;52.208;6.964;2024-01-27T00:57:45;9.23;;;5.77;;
15307;SDS011;7755;52.208;6.964;2024-01-27T01:01:50;7.60;;;5.27;;
15307;SDS011;7755;52.208;6.964;2024-01-27T01:05:55;10.73;;;5.23;;
15307;SDS011;7755;52.208;6.964;2024-01-27T01:10:03;11.53;;;5.87;;
15307;SDS011;7755;52.208;6.964;2024-01-27T01:14:08;12.30;;;5.23;;
15307;SDS011;7755;52.208;6.964;2024-01-27T01:18:13;13.03;;;5.90;;
15307;SDS011;7755;52.208;6.964;2024-01-27T01:22:18;11.20;;;5.20;;
15307;SDS011;7755;52.208;6.964;2024-01-27T01:26:26;13.67;;;6.23;;
15307;SDS011;7755;52.208;6.964;2024-01-27T01:30:31;10.43;;;5.60;;
15307;SDS011;7755;52.208;6.964;2024-01-27T01:34:36;10.17;;;5.33;;
15307;SDS011;7755;52.208;6.964;2024-01-27T01:38:41;11.23;;;5.87;;
15307;SDS011;7755;52.208;6.964;2024-01-27T01:42:52;12.13;;;5.43;;
15307;SDS011;7755;52.208;6.964;2024-01-27T01:46:58;13.77;;;5.60;;
15307;SDS011;7755;52.208;6.964;2024-01-27T01:51:05;14.30;;;5.93;;
15307;SDS011;7755;52.208;6.964;2024-01-27T01:55:10;12.90;;;5.53;;
15307;SDS011;7755;52.208;6.964;2024-01-27T01:59:18;20.37;;;6.97;;
15307;SDS011;7755;52.208;6.964;2024-01-27T02:03:23;12.70;;;5.73;;
15307;SDS011;7755;52.208;6.964;2024-01-27T02:07:28;18.13;;;6.43;;
15307;SDS011;7755;52.208;6.964;2024-01-27T02:11:33;7.57;;;6.07;;
15307;SDS011;7755;52.208;6.964;2024-01-27T02:15:40;10.67;;;6.37;;
15307;SDS011;7755;52.208;6.964;2024-01-27T02:19:45;10.13;;;5.63;;
15307;SDS011;7755;52.208;6.964;2024-01-27T02:23:50;17.43;;;7.13;;
15307;SDS011;7755;52.208;6.964;2024-01-27T02:27:58;12.40;;;5.87;;
15307;SDS011;7755;52.208;6.964;2024-01-27T02:32:05;14.07;;;6.77;;
15307;SDS011;7755;52.208;6.964;2024-01-27T02:36:10;12.00;;;6.27;;
15307;SDS011;7755;52.208;6.964;2024-01-27T02:40:15;13.90;;;6.80;;
15307;SDS011;7755;52.208;6.964;2024-01-27T02:44:23;12.90;;;6.03;;
15307;SDS011;7755;52.208;6.964;2024-01-27T02:48:27;17.43;;;6.83;;
15307;SDS011;7755;52.208;6.964;2024-01-27T02:52:32;18.50;;;7.43;;
15307;SDS011;7755;52.208;6.964;2024-01-27T02:56:37;9.50;;;6.03;;
15307;SDS011;7755;52.208;6.964;2024-01-27T03:00:45;12.83;;;6.33;;
15307;SDS011;7755;52.208;6.964;2024-01-27T03:04:50;16.17;;;7.77;;
15307;SDS011;7755;52.208;6.964;2024-01-27T03:08:55;15.23;;;7.60;;
15307;SDS011;7755;52.208;6.964;2024-01-27T03:13:00;14.37;;;7.53;;
15307;SDS011;7755;52.208;6.964;2024-01-27T03:17:07;13.17;;;7.63;;
15307;SDS011;7755;52.208;6.964;2024-01-27T03:21:12;9.70;;;7.13;;
15307;SDS011;7755;52.208;6.964;2024-01-27T03:25:17;18.60;;;8.23;;
15307;SDS011;7755;52.208;6.964;2024-01-27T03:29:22;12.60;;;7.77;;
15307;SDS011;7755;52.208;6.964;2024-01-27T03:33:29;11.10;;;6.80;;
15307;SDS011;7755;52.208;6.964;2024-01-27T03:37:34;11.97;;;6.77;;
15307;SDS011;7755;52.208;6.964;2024-01-27T03:41:39;12.40;;;7.00;;
15307;SDS011;7755;52.208;6.964;2024-01-27T03:45:44;11.67;;;7.00;;
15307;SDS011;7755;52.208;6.964;2024-01-27T03:49:52;15.97;;;7.87;;
15307;SDS011;7755;52.208;6.964;2024-01-27T03:53:57;12.87;;;7.53;;
15307;SDS011;7755;52.208;6.964;2024-01-27T03:58:02;16.60;;;8.00;;
15307;SDS011;7755;52.208;6.964;2024-01-27T04:02:07;9.43;;;6.83;;
15307;SDS011;7755;52.208;6.964;2024-01-27T04:06:14;12.80;;;8.30;;
15307;SDS011;7755;52.208;6.964;2024-01-27T04:10:20;15.97;;;7.80;;
15307;SDS011;7755;52.208;6.964;2024-01-27T04:14:25;13.57;;;7.57;;
15307;SDS011;7755;52.208;6.964;2024-01-27T04:18:30;11.93;;;7.97;;
15307;SDS011;7755;52.208;6.964;2024-01-27T04:22:38;8.33;;;7.07;;
15307;SDS011;7755;52.208;6.964;2024-01-27T04:26:42;12.40;;;8.30;;
15307;SDS011;7755;52.208;6.964;2024-01-27T04:30:48;14.30;;;9.27;;
15307;SDS011;7755;52.208;6.964;2024-01-27T04:34:52;14.13;;;7.80;;
15307;SDS011;7755;52.208;6.964;2024-01-27T04:39:00;16.77;;;8.77;;
15307;SDS011;7755;52.208;6.964;2024-01-27T04:43:06;16.57;;;9.20;;
15307;SDS011;7755;52.208;6.964;2024-01-27T04:47:10;14.00;;;8.60;;
15307;SDS011;7755;52.208;6.964;2024-01-27T04:51:15;18.07;;;9.93;;
15307;SDS011;7755;52.208;6.964;2024-01-27T04:55:23;15.60;;;8.77;;
15307;SDS011;7755;52.208;6.964;2024-01-27T04:59:28;18.70;;;10.83;;
15307;SDS011;7755;52.208;6.964;2024-01-27T05:03:33;14.93;;;9.57;;
15307;SDS011;7755;52.208;6.964;2024-01-27T05:07:38;15.97;;;9.73;;
15307;SDS011;7755;52.208;6.964;2024-01-27T05:11:46;12.27;;;8.63;;
15307;SDS011;7755;52.208;6.964;2024-01-27T05:15:53;12.60;;;8.80;;
15307;SDS011;7755;52.208;6.964;2024-01-27T05:19:58;15.93;;;8.37;;
15307;SDS011;7755;52.208;6.964;2024-01-27T05:24:05;12.50;;;8.93;;
15307;SDS011;7755;52.208;6.964;2024-01-27T05:28:13;14.77;;;9.53;;
15307;SDS011;7755;52.208;6.964;2024-01-27T05:32:19;19.17;;;9.50;;
15307;SDS011;7755;52.208;6.964;2024-01-27T05:36:24;14.40;;;9.73;;
15307;SDS011;7755;52.208;6.964;2024-01-27T05:40:29;15.47;;;11.37;;
15307;SDS011;7755;52.208;6.964;2024-01-27T05:44:36;25.10;;;18.33;;
15307;SDS011;7755;52.208;6.964;2024-01-27T05:48:42;21.33;;;14.40;;
15307;SDS011;7755;52.208;6.964;2024-01-27T05:52:47;52.40;;;27.83;;
15307;SDS011;7755;52.208;6.964;2024-01-27T05:56:52;40.47;;;23.27;;
15307;SDS011;7755;52.208;6.964;2024-01-27T06:00:59;57.03;;;37.10;;
15307;SDS011;7755;52.208;6.964;2024-01-27T06:05:04;51.13;;;30.03;;
15307;SDS011;7755;52.208;6.964;2024-01-27T06:09:10;44.20;;;25.10;;
15307;SDS011;7755;52.208;6.964;2024-01-27T06:13:15;23.40;;;15.13;;
15307;SDS011;7755;52.208;6.964;2024-01-27T06:17:23;18.10;;;11.10;;
15307;SDS011;7755;52.208;6.964;2024-01-27T06:21:28;16.30;;;11.73;;
15307;SDS011;7755;52.208;6.964;2024-01-27T06:25:32;20.77;;;12.33;;
15307;SDS011;7755;52.208;6.964;2024-01-27T06:29:38;21.70;;;12.00;;
15307;SDS011;7755;52.208;6.964;2024-01-27T06:33:46;26.97;;;18.60;;
15307;SDS011;7755;52.208;6.964;2024-01-27T06:37:51;30.80;;;20.07;;
15307;SDS011;7755;52.208;6.964;2024-01-27T06:41:56;35.00;;;20.57;;
15307;SDS011;7755;52.208;6.964;2024-01-27T06:46:01;20.60;;;15.83;;
15307;SDS011;7755;52.208;6.964;2024-01-27T06:50:09;24.17;;;16.90;;
15307;SDS011;7755;52.208;6.964;2024-01-27T06:54:15;17.80;;;14.20;;
15307;SDS011;7755;52.208;6.964;2024-01-27T06:58:20;22.03;;;14.60;;
15307;SDS011;7755;52.208;6.964;2024-01-27T07:02:25;21.73;;;15.50;;
15307;SDS011;7755;52.208;6.964;2024-01-27T07:06:33;21.40;;;15.30;;
15307;SDS011;7755;52.208;6.964;2024-01-27T07:10:38;20.33;;;15.00;;
15307;SDS011;7755;52.208;6.964;2024-01-27T07:14:43;22.23;;;16.10;;
15307;SDS011;7755;52.208;6.964;2024-01-27T07:18:48;21.40;;;14.63;;
15307;SDS011;7755;52.208;6.964;2024-01-27T07:22:55;17.63;;;15.43;;
15307;SDS011;7755;52.208;6.964;2024-01-27T07:27:00;27.57;;;15.97;;
15307;SDS011;7755;52.208;6.964;2024-01-27T07:31:07;17.67;;;14.23;;
15307;SDS011;7755;52.208;6.964;2024-01-27T07:35:13;15.73;;;13.93;;
15307;SDS011;7755;52.208;6.964;2024-01-27T07:39:20;21.10;;;15.40;;
15307;SDS011;7755;52.208;6.964;2024-01-27T07:43:25;20.23;;;15.10;;
15307;SDS011;7755;52.208;6.964;2024-01-27T07:47:30;21.30;;;15.80;;
15307;SDS011;7755;52.208;6.964;2024-01-27T07:51:35;25.67;;;15.93;;
15307;SDS011;7755;52.208;6.964;2024-01-27T07:55:43;22.87;;;16.63;;
15307;SDS011;7755;52.208;6.964;2024-01-27T07:59:48;23.43;;;16.70;;
15307;SDS011;7755;52.208;6.964;2024-01-27T08:03:53;18.93;;;15.60;;
15307;SDS011;7755;52.208;6.964;2024-01-27T08:07:58;25.87;;;16.17;;
15307;SDS011;7755;52.208;6.964;2024-01-27T08:12:06;24.63;;;18.30;;
15307;SDS011;7755;52.208;6.964;2024-01-27T08:16:12;22.67;;;16.93;;
15307;SDS011;7755;52.208;6.964;2024-01-27T08:20:17;21.40;;;16.07;;
15307;SDS011;7755;52.208;6.964;2024-01-27T08:24:22;20.87;;;16.13;;
15307;SDS011;7755;52.208;6.964;2024-01-27T08:28:30;20.43;;;16.10;;
15307;SDS011;7755;52.208;6.964;2024-01-27T08:32:35;25.97;;;16.87;;
15307;SDS011;7755;52.208;6.964;2024-01-27T08:36:40;20.50;;;16.10;;
15307;SDS011;7755;52.208;6.964;2024-01-27T08:40:45;27.90;;;17.47;;
15307;SDS011;7755;52.208;6.964;2024-01-27T08:44:53;23.73;;;17.27;;
15307;SDS011;7755;52.208;6.964;2024-01-27T08:48:58;23.00;;;16.70;;
15307;SDS011;7755;52.208;6.964;2024-01-27T08:53:03;19.93;;;17.53;;
15307;SDS011;7755;52.208;6.964;2024-01-27T08:57:08;26.77;;;18.53;;
15307;SDS011;7755;52.208;6.964;2024-01-27T09:01:15;22.00;;;16.37;;
15307;SDS011;7755;52.208;6.964;2024-01-27T09:05:21;22.93;;;16.67;;
15307;SDS011;7755;52.208;6.964;2024-01-27T09:09:26;20.30;;;16.93;;
15307;SDS011;7755;52.208;6.964;2024-01-27T09:13:31;20.20;;;16.40;;
15307;SDS011;7755;52.208;6.964;2024-01-27T09:17:38;22.30;;;17.47;;
15307;SDS011;7755;52.208;6.964;2024-01-27T09:21:44;22.70;;;15.33;;
15307;SDS011;7755;52.208;6.964;2024-01-27T09:25:49;21.17;;;15.97;;
15307;SDS011;7755;52.208;6.964;2024-01-27T09:29:55;27.27;;;16.63;;
15307;SDS011;7755;52.208;6.964;2024-01-27T09:34:03;18.80;;;15.23;;
15307;SDS011;7755;52.208;6.964;2024-01-27T09:38:08;21.80;;;15.40;;
15307;SDS011;7755;52.208;6.964;2024-01-27T09:42:15;21.43;;;14.93;;
15307;SDS011;7755;52.208;6.964;2024-01-27T09:46:25;23.57;;;14.30;;
15307;SDS011;7755;52.208;6.964;2024-01-27T09:50:33;20.13;;;14.23;;
15307;SDS011;7755;52.208;6.964;2024-01-27T09:54:39;18.60;;;13.17;;
15307;SDS011;7755;52.208;6.964;2024-01-27T09:58:45;17.13;;;13.93;;
15307;SDS011;7755;52.208;6.964;2024-01-27T10:02:51;21.37;;;14.43;;
15307;SDS011;7755;52.208;6.964;2024-01-27T10:07:00;17.77;;;14.43;;
15307;SDS011;7755;52.208;6.964;2024-01-27T10:11:06;17.97;;;13.73;;
15307;SDS011;7755;52.208;6.964;2024-01-27T10:15:18;16.17;;;13.27;;
15307;SDS011;7755;52.208;6.964;2024-01-27T10:19:24;15.87;;;14.07;;
15307;SDS011;7755;52.208;6.964;2024-01-27T10:23:31;18.53;;;13.60;;
15307;SDS011;7755;52.208;6.964;2024-01-27T10:27:36;17.37;;;15.37;;
15307;SDS011;7755;52.208;6.964;2024-01-27T10:31:42;57.90;;;33.00;;
15307;SDS011;7755;52.208;6.964;2024-01-27T10:35:46;32.47;;;21.33;;
15307;SDS011;7755;52.208;6.964;2024-01-27T10:40:06;24.23;;;15.33;;
15307;SDS011;7755;52.208;6.964;2024-01-27T10:44:13;18.07;;;13.33;;
15307;SDS011;7755;52.208;6.964;2024-01-27T10:48:19;18.47;;;13.53;;
15307;SDS011;7755;52.208;6.964;2024-01-27T10:52:25;17.83;;;13.47;;
15307;SDS011;7755;52.208;6.964;2024-01-27T10:56:36;13.43;;;12.07;;
15307;SDS011;7755;52.208;6.964;2024-01-27T11:00:44;18.50;;;13.97;;
15307;SDS011;7755;52.208;6.964;2024-01-27T11:04:53;19.27;;;12.90;;
15307;SDS011;7755;52.208;6.964;2024-01-27T11:08:58;18.17;;;12.73;;
15307;SDS011;7755;52.208;6.964;2024-01-27T11:13:08;17.00;;;12.10;;
15307;SDS011;7755;52.208;6.964;2024-01-27T11:17:14;18.40;;;13.27;;
15307;SDS011;7755;52.208;6.964;2024-01-27T11:21:19;20.17;;;12.90;;
15307;SDS011;7755;52.208;6.964;2024-01-27T11:25:24;19.30;;;13.47;;
15307;SDS011;7755;52.208;6.964;2024-01-27T11:29:32;18.67;;;13.03;;
15307;SDS011;7755;52.208;6.964;2024-01-27T11:33:41;18.90;;;12.57;;
15307;SDS011;7755;52.208;6.964;2024-01-27T11:37:47;14.13;;;11.63;;
15307;SDS011;7755;52.208;6.964;2024-01-27T11:41:52;20.57;;;12.33;;
15307;SDS011;7755;52.208;6.964;2024-01-27T11:46:11;16.63;;;13.00;;
15307;SDS011;7755;52.208;6.964;2024-01-27T11:50:16;14.10;;;12.07;;
15307;SDS011;7755;52.208;6.964;2024-01-27T11:54:23;17.87;;;12.90;;
15307;SDS011;7755;52.208;6.964;2024-01-27T11:58:28;19.80;;;11.87;;
15307;SDS011;7755;52.208;6.964;2024-01-27T12:02:36;15.40;;;12.07;;
15307;SDS011;7755;52.208;6.964;2024-01-27T12:06:41;14.83;;;11.10;;
15307;SDS011;7755;52.208;6.964;2024-01-27T12:10:46;15.30;;;11.33;;
15307;SDS011;7755;52.208;6.964;2024-01-27T12:14:51;17.37;;;12.87;;
15307;SDS011;7755;52.208;6.964;2024-01-27T12:18:59;16.60;;;12.60;;
15307;SDS011;7755;52.208;6.964;2024-01-27T12:23:05;16.40;;;9.63;;
15307;SDS011;7755;52.208;6.964;2024-01-27T12:27:10;18.53;;;12.13;;
15307;SDS011;7755;52.208;6.964;2024-01-27T12:31:15;16.20;;;11.37;;
15307;SDS011;7755;52.208;6.964;2024-01-27T12:35:23;17.00;;;10.43;;
15307;SDS011;7755;52.208;6.964;2024-01-27T12:39:30;13.33;;;10.80;;
15307;SDS011;7755;52.208;6.964;2024-01-27T12:43:35;19.47;;;11.30;;
15307;SDS011;7755;52.208;6.964;2024-01-27T12:47:40;16.80;;;9.53;;
15307;SDS011;7755;52.208;6.964;2024-01-27T12:51:48;12.10;;;9.37;;
15307;SDS011;7755;52.208;6.964;2024-01-27T12:55:53;17.87;;;9.77;;
15307;SDS011;7755;52.208;6.964;2024-01-27T12:59:58;21.43;;;12.23;;
15307;SDS011;7755;52.208;6.964;2024-01-27T13:04:05;16.67;;;12.57;;
15307;SDS011;7755;52.208;6.964;2024-01-27T13:08:13;13.60;;;10.67;;
15307;SDS011;7755;52.208;6.964;2024-01-27T13:12:18;18.07;;;11.37;;
15307;SDS011;7755;52.208;6.964;2024-01-27T13:16:23;11.87;;;8.80;;
15307;SDS011;7755;52.208;6.964;2024-01-27T13:20:28;14.90;;;8.63;;
15307;SDS011;7755;52.208;6.964;2024-01-27T13:24:36;17.07;;;13.40;;
15307;SDS011;7755;52.208;6.964;2024-01-27T13:28:41;29.83;;;19.13;;
15307;SDS011;7755;52.208;6.964;2024-01-27T13:32:46;36.33;;;30.87;;
15307;SDS011;7755;52.208;6.964;2024-01-27T13:36:51;32.47;;;25.77;;
15307;SDS011;7755;52.208;6.964;2024-01-27T13:40:58;25.33;;;18.67;;
15307;SDS011;7755;52.208;6.964;2024-01-27T13:45:04;19.53;;;16.13;;
15307;SDS011;7755;52.208;6.964;2024-01-27T13:49:10;15.60;;;13.10;;
15307;SDS011;7755;52.208;6.964;2024-01-27T13:53:15;16.13;;;10.83;;
15307;SDS011;7755;52.208;6.964;2024-01-27T13:57:25;12.17;;;7.77;;
15307;SDS011;7755;52.208;6.964;2024-01-27T14:01:30;16.63;;;9.00;;
15307;SDS011;7755;52.208;6.964;2024-01-27T14:05:35;16.57;;;10.03;;
15307;SDS011;7755;52.208;6.964;2024-01-27T14:09:40;12.27;;;8.73;;
15307;SDS011;7755;52.208;6.964;2024-01-27T14:13:48;20.23;;;10.90;;
15307;SDS011;7755;52.208;6.964;2024-01-27T14:17:53;16.47;;;7.40;;
15307;SDS011;7755;52.208;6.964;2024-01-27T14:21:58;12.57;;;9.37;;
15307;SDS011;7755;52.208;6.964;2024-01-27T14:26:03;15.67;;;8.27;;
15307;SDS011;7755;52.208;6.964;2024-01-27T14:30:12;16.93;;;9.63;;
15307;SDS011;7755;52.208;6.964;2024-01-27T14:34:18;13.63;;;8.70;;
15307;SDS011;7755;52.208;6.964;2024-01-27T14:38:23;13.53;;;10.00;;
15307;SDS011;7755;52.208;6.964;2024-01-27T14:42:28;14.97;;;9.57;;
15307;SDS011;7755;52.208;6.964;2024-01-27T14:46:38;15.13;;;9.33;;
15307;SDS011;7755;52.208;6.964;2024-01-27T14:50:43;11.93;;;8.97;;
15307;SDS011;7755;52.208;6.964;2024-01-27T14:54:49;16.33;;;8.70;;
15307;SDS011;7755;52.208;6.964;2024-01-27T14:58:54;13.77;;;8.20;;
15307;SDS011;7755;52.208;6.964;2024-01-27T15:03:01;9.20;;;7.80;;
15307;SDS011;7755;52.208;6.964;2024-01-27T15:07:07;14.37;;;7.60;;
15307;SDS011;7755;52.208;6.964;2024-01-27T15:11:17;12.90;;;7.30;;
15307;SDS011;7755;52.208;6.964;2024-01-27T15:15:22;13.50;;;7.77;;
15307;SDS011;7755;52.208;6.964;2024-01-27T15:19:29;12.53;;;7.23;;
15307;SDS011;7755;52.208;6.964;2024-01-27T15:23:41;11.47;;;7.27;;
15307;SDS011;7755;52.208;6.964;2024-01-27T15:27:48;7.73;;;7.00;;
15307;SDS011;7755;52.208;6.964;2024-01-27T15:31:53;10.30;;;7.80;;
15307;SDS011;7755;52.208;6.964;2024-01-27T15:36:00;10.30;;;6.83;;
15307;SDS011;7755;52.208;6.964;2024-01-27T15:40:06;9.77;;;7.37;;
15307;SDS011;7755;52.208;6.964;2024-01-27T15:44:12;11.40;;;7.27;;
15307;SDS011;7755;52.208;6.964;2024-01-27T15:48:17;12.90;;;7.83;;
15307;SDS011;7755;52.208;6.964;2024-01-27T15:52:25;13.83;;;7.57;;
15307;SDS011;7755;52.208;6.964;2024-01-27T15:56:30;12.03;;;7.27;;
15307;SDS011;7755;52.208;6.964;2024-01-27T16:00:35;12.67;;;8.33;;
15307;SDS011;7755;52.208;6.964;2024-01-27T16:04:40;15.37;;;10.47;;
15307;SDS011;7755;52.208;6.964;2024-01-27T16:08:47;18.80;;;16.53;;
15307;SDS011;7755;52.208;6.964;2024-01-27T16:12:52;31.47;;;23.77;;
15307;SDS011;7755;52.208;6.964;2024-01-27T16:16:57;19.30;;;16.03;;
15307;SDS011;7755;52.208;6.964;2024-01-27T16:21:02;17.27;;;15.33;;
15307;SDS011;7755;52.208;6.964;2024-01-27T16:25:10;23.47;;;19.40;;
15307;SDS011;7755;52.208;6.964;2024-01-27T16:29:15;23.27;;;16.13;;
15307;SDS011;7755;52.208;6.964;2024-01-27T16:33:21;15.93;;;14.33;;
15307;SDS011;7755;52.208;6.964;2024-01-27T16:37:26;17.33;;;12.97;;
15307;SDS011;7755;52.208;6.964;2024-01-27T16:41:33;15.37;;;13.50;;
15307;SDS011;7755;52.208;6.964;2024-01-27T16:45:38;18.50;;;16.27;;
15307;SDS011;7755;52.208;6.964;2024-01-27T16:49:43;18.10;;;14.03;;
15307;SDS011;7755;52.208;6.964;2024-01-27T16:53:48;20.37;;;16.57;;
15307;SDS011;7755;52.208;6.964;2024-01-27T16:57:56;27.63;;;19.27;;
15307;SDS011;7755;52.208;6.964;2024-01-27T17:02:01;24.70;;;19.57;;
15307;SDS011;7755;52.208;6.964;2024-01-27T17:06:06;23.87;;;17.27;;
15307;SDS011;7755;52.208;6.964;2024-01-27T17:10:11;18.90;;;15.60;;
15307;SDS011;7755;52.208;6.964;2024-01-27T17:14:19;16.80;;;14.03;;
15307;SDS011;7755;52.208;6.964;2024-01-27T17:18:24;22.33;;;15.23;;
15307;SDS011;7755;52.208;6.964;2024-01-27T17:22:29;17.90;;;13.07;;
15307;SDS011;7755;52.208;6.964;2024-01-27T17:26:34;18.40;;;13.83;;
15307;SDS011;7755;52.208;6.964;2024-01-27T17:30:42;16.87;;;13.07;;
15307;SDS011;7755;52.208;6.964;2024-01-27T17:34:47;18.13;;;12.10;;
15307;SDS011;7755;52.208;6.964;2024-01-27T17:38:52;13.47;;;10.37;;
15307;SDS011;7755;52.208;6.964;2024-01-27T17:42:57;14.60;;;10.53;;
15307;SDS011;7755;52.208;6.964;2024-01-27T17:47:06;14.37;;;9.87;;
15307;SDS011;7755;52.208;6.964;2024-01-27T17:51:12;14.50;;;10.63;;
15307;SDS011;7755;52.208;6.964;2024-01-27T17:55:17;12.90;;;11.40;;
15307;SDS011;7755;52.208;6.964;2024-01-27T17:59:22;16.00;;;12.23;;
15307;SDS011;7755;52.208;6.964;2024-01-27T18:03:30;16.07;;;11.47;;
15307;SDS011;7755;52.208;6.964;2024-01-27T18:07:35;12.60;;;10.03;;
15307;SDS011;7755;52.208;6.964;2024-01-27T18:11:40;14.60;;;9.10;;
15307;SDS011;7755;52.208;6.964;2024-01-27T18:15:45;9.53;;;8.33;;
15307;SDS011;7755;52.208;6.964;2024-01-27T18:19:52;13.87;;;10.10;;
15307;SDS011;7755;52.208;6.964;2024-01-27T18:23:57;11.07;;;9.83;;
15307;SDS011;7755;52.208;6.964;2024-01-27T18:28:03;12.50;;;8.00;;
15307;SDS011;7755;52.208;6.964;2024-01-27T18:32:08;9.63;;;8.63;;
15307;SDS011;7755;52.208;6.964;2024-01-27T18:36:17;9.17;;;8.13;;
15307;SDS011;7755;52.208;6.964;2024-01-27T18:40:23;11.30;;;7.87;;
15307;SDS011;7755;52.208;6.964;2024-01-27T18:44:28;15.70;;;8.93;;
15307;SDS011;7755;52.208;6.964;2024-01-27T18:48:33;12.20;;;8.53;;
15307;SDS011;7755;52.208;6.964;2024-01-27T18:52:40;11.40;;;8.47;;
15307;SDS011;7755;52.208;6.964;2024-01-27T18:56:45;13.57;;;10.30;;
15307;SDS011;7755;52.208;6.964;2024-01-27T19:00:50;13.77;;;10.83;;
15307;SDS011;7755;52.208;6.964;2024-01-27T19:05:02;12.03;;;9.43;;
15307;SDS011;7755;52.208;6.964;2024-01-27T19:09:12;15.70;;;10.13;;
15307;SDS011;7755;52.208;6.964;2024-01-27T19:13:17;15.17;;;10.67;;
15307;SDS011;7755;52.208;6.964;2024-01-27T19:17:22;15.17;;;10.70;;
15307;SDS011;7755;52.208;6.964;2024-01-27T19:21:27;15.13;;;10.93;;
15307;SDS011;7755;52.208;6.964;2024-01-27T19:25:35;20.23;;;12.67;;
15307;SDS011;7755;52.208;6.964;2024-01-27T19:29:40;21.00;;;13.80;;
15307;SDS011;7755;52.208;6.964;2024-01-27T19:33:45;20.97;;;16.63;;
15307;SDS011;7755;52.208;6.964;2024-01-27T19:37:50;20.73;;;14.30;;
15307;SDS011;7755;52.208;6.964;2024-01-27T19:41:58;16.50;;;12.77;;
15307;SDS011;7755;52.208;6.964;2024-01-27T19:46:03;20.30;;;13.03;;
15307;SDS011;7755;52.208;6.964;2024-01-27T19:50:08;12.80;;;11.33;;
15307;SDS011;7755;52.208;6.964;2024-01-27T19:54:14;16.00;;;13.10;;
15307;SDS011;7755;52.208;6.964;2024-01-27T19:58:22;17.47;;;13.57;;
15307;SDS011;7755;52.208;6.964;2024-01-27T20:02:27;16.03;;;12.20;;
15307;SDS011;7755;52.208;6.964;2024-01-27T20:06:32;13.90;;;11.40;;
15307;SDS011;7755;52.208;6.964;2024-01-27T20:10:37;16.03;;;11.47;;
15307;SDS011;7755;52.208;6.964;2024-01-27T20:14:44;21.20;;;11.97;;
15307;SDS011;7755;52.208;6.964;2024-01-27T20:18:49;14.30;;;10.10;;
15307;SDS011;7755;52.208;6.964;2024-01-27T20:22:54;14.23;;;11.80;;
15307;SDS011;7755;52.208;6.964;2024-01-27T20:26:59;16.60;;;10.83;;
15307;SDS011;7755;52.208;6.964;2024-01-27T20:31:07;15.83;;;13.83;;
15307;SDS011;7755;52.208;6.964;2024-01-27T20:35:12;17.50;;;13.70;;
15307;SDS011;7755;52.208;6.964;2024-01-27T20:39:17;13.40;;;12.00;;
15307;SDS011;7755;52.208;6.964;2024-01-27T20:43:23;25.37;;;15.77;;
15307;SDS011;7755;52.208;6.964;2024-01-27T20:47:30;17.90;;;13.70;;
15307;SDS011;7755;52.208;6.964;2024-01-27T20:51:36;18.33;;;15.43;;
15307;SDS011;7755;52.208;6.964;2024-01-27T20:55:44;18.03;;;13.40;;
15307;SDS011;7755;52.208;6.964;2024-01-27T20:59:52;22.17;;;13.23;;
15307;SDS011;7755;52.208;6.964;2024-01-27T21:04:00;17.07;;;12.80;;
15307;SDS011;7755;52.208;6.964;2024-01-27T21:08:05;14.90;;;12.30;;
15307;SDS011;7755;52.208;6.964;2024-01-27T21:12:10;19.73;;;15.43;;
15307;SDS011;7755;52.208;6.964;2024-01-27T21:16:15;17.20;;;13.77;;
15307;SDS011;7755;52.208;6.964;2024-01-27T21:20:23;17.80;;;13.70;;
15307;SDS011;7755;52.208;6.964;2024-01-27T21:24:28;18.17;;;13.80;;
15307;SDS011;7755;52.208;6.964;2024-01-27T21:28:33;17.77;;;12.87;;
15307;SDS011;7755;52.208;6.964;2024-01-27T21:32:37;17.60;;;12.77;;
15307;SDS011;7755;52.208;6.964;2024-01-27T21:36:45;21.03;;;12.90;;
15307;SDS011;7755;52.208;6.964;2024-01-27T21:40:50;16.83;;;12.07;;
15307;SDS011;7755;52.208;6.964;2024-01-27T21:44:55;14.73;;;11.07;;
15307;SDS011;7755;52.208;6.964;2024-01-27T21:49:01;14.83;;;11.53;;
15307;SDS011;7755;52.208;6.964;2024-01-27T21:53:11;16.50;;;12.43;;
15307;SDS011;7755;52.208;6.964;2024-01-27T21:57:16;16.30;;;11.93;;
15307;SDS011;7755;52.208;6.964;2024-01-27T22:01:21;15.10;;;11.47;;
15307;SDS011;7755;52.208;6.964;2024-01-27T22:05:27;13.77;;;11.27;;
15307;SDS011;7755;52.208;6.964;2024-01-27T22:09:35;18.00;;;13.10;;
15307;SDS011;7755;52.208;6.964;2024-01-27T22:13:40;19.90;;;14.43;;
15307;SDS011;7755;52.208;6.964;2024-01-27T22:17:45;21.07;;;14.80;;
15307;SDS011;7755;52.208;6.964;2024-01-27T22:21:50;24.57;;;16.47;;
15307;SDS011;7755;52.208;6.964;2024-01-27T22:25:58;16.73;;;12.97;;
15307;SDS011;7755;52.208;6.964;2024-01-27T22:30:03;16.73;;;12.07;;
15307;SDS011;7755;52.208;6.964;2024-01-27T22:34:12;18.57;;;13.23;;
15307;SDS011;7755;52.208;6.964;2024-01-27T22:38:17;17.87;;;12.60;;
15307;SDS011;7755;52.208;6.964;2024-01-27T22:42:25;15.63;;;10.10;;
15307;SDS011;7755;52.208;6.964;2024-01-27T22:46:32;18.20;;;11.73;;
15307;SDS011;7755;52.208;6.964;2024-01-27T22:50:37;16.47;;;11.97;;
15307;SDS011;7755;52.208;6.964;2024-01-27T22:54:43;16.40;;;12.87;;
15307;SDS011;7755;52.208;6.964;2024-01-27T22:58:52;15.63;;;12.27;;
15307;SDS011;7755;52.208;6.964;2024-01-27T23:02:57;18.00;;;11.50;;
15307;SDS011;7755;52.208;6.964;2024-01-27T23:07:02;14.93;;;10.73;;
15307;SDS011;7755;52.208;6.964;2024-01-27T23:11:07;14.60;;;11.83;;
15307;SDS011;7755;52.208;6.964;2024-01-27T23:15:15;13.07;;;10.63;;
15307;SDS011;7755;52.208;6.964;2024-01-27T23:19:22;15.60;;;10.83;;
15307;SDS011;7755;52.208;6.964;2024-01-27T23:23:27;14.30;;;11.23;;
15307;SDS011;7755;52.208;6.964;2024-01-27T23:27:32;15.93;;;10.87;;
15307;SDS011;7755;52.208;6.964;2024-01-27T23:31:39;15.07;;;11.03;;
15307;SDS011;7755;52.208;6.964;2024-01-27T23:35:44;15.03;;;11.60;;
15307;SDS011;7755;52.208;6.964;2024-01-27T23:39:49;15.63;;;11.63;;
15307;SDS011;7755;52.208;6.964;2024-01-27T23:43:54;14.40;;;11.03;;
15307;SDS011;7755;52.208;6.964;2024-01-27T23:48:02;16.90;;;11.27;;
15307;SDS011;7755;52.208;6.964;2024-01-27T23:52:08;16.30;;;11.03;;
15307;SDS011;7755;52.208;6.964;2024-01-27T23:56:13;15.40;;;10.47;;
